Time;durP1;ratioP1;P1;durP2;ratioP2;P2;SDS_P1;SDS_P2;PMS_P1;PMS_P2;Temp;Humidity;BMP_temperature;BMP_pressure;BME280_temperature;BME280_humidity;BME280_pressure;Samples;Min_cycle;Max_cycle;Signal;HPM_P1;HPM_P2
2022/08/29 04:01:08;;;;;;;10.07;8.17;;;17.30;99.90;;;;;;5663186;23;20527;-63
2022/08/29 04:03:35;;;;;;;9.20;8.30;;;17.30;99.90;;;;;;4977075;28;20454;-62
2022/08/29 04:06:02;;;;;;;9.23;8.43;;;17.30;99.90;;;;;;4976845;28;20446;-63
2022/08/29 04:08:29;;;;;;;9.73;8.00;;;17.20;99.90;;;;;;4977071;28;20454;-62
2022/08/29 04:10:56;;;;;;;9.73;8.10;;;17.20;99.90;;;;;;4976810;28;20483;-63
2022/08/29 04:13:22;;;;;;;9.80;8.60;;;17.20;99.90;;;;;;4977026;28;20554;-63
2022/08/29 04:15:49;;;;;;;9.40;8.37;;;17.20;99.90;;;;;;4976925;28;20494;-63
2022/08/29 04:18:18;;;;;;;16.17;8.73;;;17.20;99.90;;;;;;4976858;28;20482;-63
2022/08/29 04:20:44;;;;;;;9.30;8.53;;;17.20;99.90;;;;;;4976715;28;20898;-62
2022/08/29 04:23:12;;;;;;;9.30;8.47;;;17.10;99.90;;;;;;4976733;28;20462;-63
2022/08/29 04:25:42;;;;;;;9.40;8.40;;;17.10;99.90;;;;;;4976462;28;20992;-63
2022/08/29 04:28:11;;;;;;;9.30;8.27;;;17.00;99.90;;;;;;4976556;28;20502;-63
2022/08/29 04:30:39;;;;;;;9.70;8.70;;;17.00;99.90;;;;;;4976743;28;20475;-64
2022/08/29 04:33:06;;;;;;;10.03;9.13;;;16.90;99.90;;;;;;4976532;28;20470;-63
2022/08/29 04:35:36;;;;;;;9.80;9.00;;;16.90;99.90;;;;;;4976443;28;20514;-63
2022/08/29 04:38:02;;;;;;;10.23;9.27;;;16.90;99.90;;;;;;4976275;28;20565;-63
2022/08/29 04:40:29;;;;;;;9.97;9.00;;;16.80;99.90;;;;;;4975557;28;20479;-64
2022/08/29 04:42:58;;;;;;;9.63;8.73;;;16.70;99.90;;;;;;4976020;28;20969;-63
2022/08/29 04:45:25;;;;;;;10.10;9.10;;;16.70;99.90;;;;;;4977045;28;20510;-62
2022/08/29 04:47:52;;;;;;;8.63;7.87;;;16.80;99.90;;;;;;4976121;28;20454;-62
2022/08/29 04:50:21;;;;;;;8.30;7.60;;;16.90;99.90;;;;;;4976031;28;20461;-62
2022/08/29 04:52:51;;;;;;;9.77;8.87;;;16.90;99.90;;;;;;4976178;28;20455;-62
2022/08/29 04:55:19;;;;;;;12.03;8.70;;;17.00;99.90;;;;;;4976136;28;20458;-63
2022/08/29 04:57:46;;;;;;;9.93;8.93;;;17.00;99.90;;;;;;4976386;28;20485;-63
2022/08/29 05:00:15;;;;;;;9.13;8.23;;;17.10;99.90;;;;;;4979934;28;20465;-63
2022/08/29 05:02:44;;;;;;;8.60;7.80;;;17.10;99.90;;;;;;4979528;28;20451;-63
2022/08/29 05:05:13;;;;;;;8.90;8.00;;;17.20;99.90;;;;;;4975931;28;20451;-64
2022/08/29 05:07:42;;;;;;;9.30;8.47;;;17.20;99.90;;;;;;4975452;28;20886;-63
2022/08/29 05:10:12;;;;;;;9.27;8.40;;;17.10;99.90;;;;;;4975414;28;20486;-64
2022/08/29 05:12:39;;;;;;;9.43;8.50;;;17.20;99.90;;;;;;4975807;28;20524;-63
2022/08/29 05:15:07;;;;;;;9.30;8.00;;;17.20;99.90;;;;;;4975387;28;20465;-61
2022/08/29 05:17:35;;;;;;;9.20;7.90;;;17.20;99.90;;;;;;4975345;28;20466;-62
2022/08/29 05:20:03;;;;;;;10.23;8.40;;;17.20;99.90;;;;;;4975361;28;20986;-62
2022/08/29 05:22:30;;;;;;;10.73;9.83;;;17.30;99.90;;;;;;4976420;28;20487;-64
2022/08/29 05:24:57;;;;;;;9.97;9.03;;;17.30;99.90;;;;;;4976029;28;20461;-62
2022/08/29 05:27:25;;;;;;;10.50;8.20;;;17.30;99.90;;;;;;4976775;28;20498;-62
2022/08/29 05:29:52;;;;;;;9.93;8.87;;;17.40;99.90;;;;;;4976942;28;20462;-62
2022/08/29 05:32:20;;;;;;;11.00;9.90;;;17.40;99.90;;;;;;4976716;28;20482;-62
2022/08/29 05:34:48;;;;;;;10.10;9.20;;;17.50;99.90;;;;;;4976051;28;20443;-63
2022/08/29 05:37:19;;;;;;;10.43;9.37;;;17.40;99.90;;;;;;4975950;28;20462;-63
2022/08/29 05:39:46;;;;;;;11.60;10.20;;;17.50;99.90;;;;;;4974905;28;21003;-63
2022/08/29 05:42:13;;;;;;;10.40;9.40;;;17.60;99.90;;;;;;4974823;28;20996;-63
2022/08/29 05:44:41;;;;;;;12.10;10.00;;;17.70;99.90;;;;;;4975762;28;20466;-63
2022/08/29 05:47:10;;;;;;;11.07;9.70;;;17.80;99.90;;;;;;4975196;28;20462;-62
2022/08/29 05:49:37;;;;;;;10.50;9.60;;;18.00;99.90;;;;;;4974722;28;20537;-64
2022/08/29 05:52:05;;;;;;;10.23;9.23;;;18.10;99.90;;;;;;4974848;28;20481;-62
2022/08/29 05:54:34;;;;;;;9.50;8.70;;;18.40;99.90;;;;;;4975130;28;20513;-62
2022/08/29 05:57:01;;;;;;;10.53;9.50;;;18.60;99.90;;;;;;4974989;28;20460;-62
2022/08/29 05:59:28;;;;;;;14.90;8.80;;;18.90;99.90;;;;;;4974994;28;20478;-62
2022/08/29 06:01:56;;;;;;;11.70;10.50;;;19.30;99.90;;;;;;4974705;28;20483;-62
2022/08/29 06:04:23;;;;;;;10.53;8.30;;;19.60;99.90;;;;;;4975031;28;20902;-62
2022/08/29 06:06:50;;;;;;;9.40;8.50;;;20.00;99.90;;;;;;4975195;28;20459;-62
2022/08/29 06:09:17;;;;;;;9.07;8.30;;;20.50;99.90;;;;;;4975367;28;20501;-62
2022/08/29 06:11:47;;;;;;;8.20;7.40;;;21.00;99.90;;;;;;4974942;28;20466;-63
2022/08/29 06:14:14;;;;;;;9.97;7.43;;;21.60;99.90;;;;;;4975042;28;20450;-63
2022/08/29 06:16:41;;;;;;;9.13;8.23;;;22.20;99.90;;;;;;4974594;28;20454;-63
2022/08/29 06:19:10;;;;;;;7.87;6.90;;;22.80;99.90;;;;;;4975056;28;20482;-63
2022/08/29 06:21:37;;;;;;;10.47;7.20;;;23.30;99.90;;;;;;4975942;28;20549;-63
2022/08/29 06:24:05;;;;;;;8.27;6.70;;;23.60;99.90;;;;;;4975779;28;20446;-63
2022/08/29 06:26:33;;;;;;;7.37;6.77;;;24.10;99.90;;;;;;4975367;28;20462;-63
2022/08/29 06:29:00;;;;;;;8.23;7.23;;;24.40;99.90;;;;;;4975341;28;20486;-63
2022/08/29 06:31:28;;;;;;;16.33;7.20;;;24.80;99.90;;;;;;4975193;28;20479;-63
2022/08/29 06:33:57;;;;;;;10.87;7.50;;;25.00;99.90;;;;;;4975549;28;20494;-63
2022/08/29 06:36:26;;;;;;;8.00;6.73;;;24.90;99.90;;;;;;4975076;28;20950;-63
2022/08/29 06:38:56;;;;;;;8.50;7.10;;;25.10;99.90;;;;;;4975437;28;20486;-63
2022/08/29 06:41:23;;;;;;;8.27;6.80;;;24.90;99.90;;;;;;4974551;28;20537;-63
2022/08/29 06:43:50;;;;;;;6.90;6.40;;;24.90;99.90;;;;;;4974886;28;20443;-63
2022/08/29 06:46:20;;;;;;;7.70;6.00;;;24.80;99.90;;;;;;4975695;28;20513;-63
2022/08/29 06:48:47;;;;;;;9.83;5.80;;;24.90;99.90;;;;;;4975228;28;20529;-63
2022/08/29 06:51:14;;;;;;;8.20;6.27;;;25.10;99.90;;;;;;4974480;28;20474;-63
2022/08/29 06:53:42;;;;;;;7.57;6.87;;;25.50;99.90;;;;;;4974512;28;20463;-62
2022/08/29 06:56:09;;;;;;;10.20;6.40;;;25.60;99.90;;;;;;4974456;28;20458;-63
2022/08/29 06:58:36;;;;;;;7.17;6.00;;;25.40;99.90;;;;;;4974480;28;20484;-63
2022/08/29 07:01:06;;;;;;;9.47;6.63;;;25.70;99.90;;;;;;4974380;28;20493;-63
2022/08/29 07:03:33;;;;;;;6.30;5.20;;;25.80;99.90;;;;;;4974461;28;20490;-63
2022/08/29 07:05:59;;;;;;;7.03;6.43;;;26.30;99.90;;;;;;4977873;28;20841;-63
2022/08/29 07:08:26;;;;;;;9.07;6.27;;;26.70;99.90;;;;;;4977459;28;20450;-63
2022/08/29 07:10:54;;;;;;;6.60;6.00;;;26.90;99.90;;;;;;4977775;28;20475;-63
2022/08/29 07:13:21;;;;;;;6.30;5.70;;;27.30;99.20;;;;;;4977985;28;20462;-63
2022/08/29 07:15:47;;;;;;;7.30;6.07;;;27.30;99.50;;;;;;4977895;28;20459;-63
2022/08/29 07:18:14;;;;;;;7.57;5.97;;;27.50;97.50;;;;;;4977119;28;20825;-64
2022/08/29 07:20:41;;;;;;;6.93;6.23;;;27.60;96.50;;;;;;4977389;28;20486;-64
2022/08/29 07:23:08;;;;;;;9.47;6.17;;;28.00;96.90;;;;;;4977723;28;20461;-64
2022/08/29 07:25:35;;;;;;;6.13;5.40;;;27.60;96.10;;;;;;4977550;28;20454;-64
2022/08/29 07:28:04;;;;;;;8.37;5.97;;;27.70;95.40;;;;;;4977521;28;20455;-63
2022/08/29 07:30:31;;;;;;;6.27;5.70;;;28.10;94.60;;;;;;4977234;28;20810;-64
2022/08/29 07:32:58;;;;;;;6.77;6.17;;;27.90;95.70;;;;;;4977765;28;20458;-64
2022/08/29 07:35:25;;;;;;;6.60;5.90;;;28.30;95.60;;;;;;4977449;28;20462;-63
2022/08/29 07:37:52;;;;;;;7.20;6.50;;;28.70;95.40;;;;;;4977595;28;20458;-63
2022/08/29 07:40:19;;;;;;;6.43;5.73;;;28.80;94.70;;;;;;4977473;28;20537;-64
2022/08/29 07:42:46;;;;;;;5.77;5.30;;;29.00;93.20;;;;;;4977483;28;20459;-63
2022/08/29 07:45:16;;;;;;;10.10;6.70;;;29.20;93.60;;;;;;4976924;28;20458;-63
2022/08/29 07:47:43;;;;;;;14.37;6.67;;;29.10;91.50;;;;;;4977982;28;20506;-63
2022/08/29 07:50:12;;;;;;;7.37;6.20;;;29.30;92.20;;;;;;4977157;28;20461;-63
2022/08/29 07:52:40;;;;;;;6.97;6.17;;;29.40;91.30;;;;;;4976758;28;20828;-64
2022/08/29 07:55:08;;;;;;;7.40;5.90;;;29.60;90.10;;;;;;4977158;28;20482;-63
2022/08/29 07:57:35;;;;;;;8.97;6.63;;;29.80;90.00;;;;;;4977219;28;20972;-63
2022/08/29 08:00:02;;;;;;;6.20;5.60;;;29.70;88.70;;;;;;4977824;28;20459;-64
2022/08/29 08:02:30;;;;;;;7.20;6.63;;;29.30;89.00;;;;;;4979918;28;20490;-64
2022/08/29 08:04:57;;;;;;;8.37;6.07;;;29.30;89.10;;;;;;4980188;28;20455;-63
2022/08/29 08:07:23;;;;;;;7.17;6.03;;;29.40;90.60;;;;;;4976648;28;20455;-63
2022/08/29 08:09:51;;;;;;;6.90;6.23;;;29.10;88.70;;;;;;4976883;28;20451;-63
2022/08/29 08:12:17;;;;;;;6.57;5.90;;;29.40;90.50;;;;;;4976384;28;20837;-63
2022/08/29 08:14:44;;;;;;;8.13;7.03;;;30.10;89.00;;;;;;4976885;28;20465;-63
2022/08/29 08:17:11;;;;;;;9.73;6.67;;;30.20;85.40;;;;;;4976526;28;20458;-63
2022/08/29 08:19:39;;;;;;;9.57;6.63;;;30.40;85.70;;;;;;4976651;28;20483;-63
2022/08/29 08:22:05;;;;;;;6.63;5.90;;;30.30;84.60;;;;;;4976204;28;20850;-63
2022/08/29 08:24:32;;;;;;;6.23;5.50;;;30.50;82.70;;;;;;4976127;28;20954;-63
2022/08/29 08:26:59;;;;;;;7.60;6.45;;;30.70;84.90;;;;;;4976305;28;20928;-63
2022/08/29 08:29:26;;;;;;;9.30;6.43;;;31.00;83.10;;;;;;4976315;28;20202;-64
2022/08/29 08:31:54;;;;;;;8.23;6.53;;;31.30;84.30;;;;;;4976343;28;20525;-63
2022/08/29 08:34:21;;;;;;;6.87;5.73;;;32.00;82.50;;;;;;4976298;28;20903;-64
2022/08/29 08:36:49;;;;;;;7.17;6.57;;;32.70;79.60;;;;;;4976427;28;20478;-63
2022/08/29 08:39:16;;;;;;;6.13;5.73;;;33.10;76.90;;;;;;4975900;28;20985;-63
2022/08/29 08:41:52;;;;;;;7.20;6.40;;;33.60;75.00;;;;;;4976234;28;20478;-62
2022/08/29 08:44:47;;;;;;;7.10;6.50;;;33.70;71.90;;;;;;4975802;28;20802;-62
2022/08/29 08:47:21;;;;;;;6.43;5.83;;;33.70;70.70;;;;;;4976199;28;20443;-62
2022/08/29 08:49:53;;;;;;;7.30;6.30;;;33.70;71.80;;;;;;4976059;28;20534;-62
2022/08/29 08:52:27;;;;;;;8.67;7.77;;;34.10;69.10;;;;;;4976048;28;20474;-63
2022/08/29 08:55:01;;;;;;;7.10;6.23;;;34.70;67.30;;;;;;4976045;28;20472;-63
2022/08/29 08:57:36;;;;;;;7.27;6.67;;;35.00;68.20;;;;;;4976260;28;20439;-62
2022/08/29 09:00:07;;;;;;;7.83;6.20;;;35.00;65.20;;;;;;4975869;28;20468;-62
2022/08/29 09:02:39;;;;;;;7.20;6.17;;;34.60;64.50;;;;;;4975330;28;20580;-62
2022/08/29 09:05:20;;;;;;;7.00;6.50;;;35.10;64.40;;;;;;4975885;28;20435;-63
2022/08/29 09:07:55;;;;;;;6.57;5.97;;;35.10;64.90;;;;;;4975702;28;20937;-63
2022/08/29 09:10:31;;;;;;;7.77;7.10;;;34.90;63.00;;;;;;4976052;28;20434;-62
2022/08/29 09:13:05;;;;;;;7.27;6.57;;;35.30;60.90;;;;;;4975841;28;20509;-62
2022/08/29 09:15:39;;;;;;;11.37;7.10;;;35.40;64.10;;;;;;4976062;28;20469;-62
2022/08/29 09:18:08;;;;;;;6.97;6.37;;;35.70;61.50;;;;;;4975423;28;20806;-62
2022/08/29 09:20:38;;;;;;;7.30;6.67;;;35.20;60.20;;;;;;4975469;28;20486;-63
2022/08/29 09:23:14;;;;;;;7.90;7.20;;;35.00;62.70;;;;;;4975319;28;20442;-63
2022/08/29 09:25:41;;;;;;;8.10;7.40;;;35.10;62.40;;;;;;4975616;28;20438;-63
2022/08/29 09:28:08;;;;;;;7.30;6.60;;;34.90;64.00;;;;;;4975083;28;20458;-62
2022/08/29 09:30:38;;;;;;;8.47;7.77;;;35.10;62.90;;;;;;4975369;28;20481;-62
2022/08/29 09:33:07;;;;;;;7.33;6.80;;;35.20;65.00;;;;;;4975529;28;20462;-62
2022/08/29 09:35:38;;;;;;;7.60;6.93;;;34.90;60.40;;;;;;4975355;28;20461;-62
2022/08/29 09:38:08;;;;;;;7.57;6.93;;;35.00;63.30;;;;;;4975415;28;20549;-62
2022/08/29 09:40:51;;;;;;;7.83;7.13;;;34.70;61.10;;;;;;4975372;28;20493;-63
2022/08/29 09:43:23;;;;;;;7.43;6.73;;;35.00;60.10;;;;;;4975377;28;20445;-63
2022/08/29 09:46:04;;;;;;;8.77;7.97;;;34.70;59.90;;;;;;4975334;28;20442;-62
2022/08/29 09:48:31;;;;;;;6.90;6.30;;;34.40;62.40;;;;;;4975442;28;20442;-62
2022/08/29 09:51:11;;;;;;;7.70;7.00;;;34.40;62.30;;;;;;4975319;28;20830;-63
2022/08/29 09:53:40;;;;;;;7.13;6.40;;;34.70;62.70;;;;;;4974802;28;20442;-62
2022/08/29 09:56:09;;;;;;;7.43;6.73;;;35.20;60.20;;;;;;4975226;28;20451;-62
2022/08/29 09:58:38;;;;;;;6.63;6.10;;;34.70;61.80;;;;;;4975276;28;20507;-62
2022/08/29 10:01:09;;;;;;;7.77;7.27;;;34.80;62.70;;;;;;4974709;28;20981;-62
2022/08/29 10:03:40;;;;;;;7.60;5.90;;;35.20;61.40;;;;;;4975184;28;20443;-63
2022/08/29 10:06:09;;;;;;;7.83;7.13;;;35.70;60.00;;;;;;4975240;28;20437;-62
2022/08/29 10:08:38;;;;;;;6.23;5.73;;;36.10;59.40;;;;;;4975049;28;20465;-62
2022/08/29 10:11:18;;;;;;;7.20;5.90;;;36.70;57.80;;;;;;4975165;28;20504;-62
2022/08/29 10:13:50;;;;;;;10.53;6.40;;;36.90;55.70;;;;;;4975314;28;20445;-61
2022/08/29 10:16:25;;;;;;;7.50;6.20;;;36.50;56.40;;;;;;4975841;28;20525;-62
2022/08/29 10:18:57;;;;;;;6.10;5.17;;;36.00;57.60;;;;;;4975657;28;20442;-62
2022/08/29 10:21:35;;;;;;;5.77;5.27;;;35.50;57.80;;;;;;4975120;28;20565;-62
2022/08/29 10:24:17;;;;;;;6.83;6.13;;;35.20;57.20;;;;;;4975467;28;20442;-62
2022/08/29 10:26:53;;;;;;;6.43;5.20;;;34.20;57.30;;;;;;4975336;28;20438;-62
2022/08/29 10:29:33;;;;;;;7.50;5.43;;;33.60;59.30;;;;;;4976084;28;20438;-63
2022/08/29 10:32:09;;;;;;;9.13;5.93;;;34.00;60.90;;;;;;4975050;28;20509;-63
2022/08/29 10:34:51;;;;;;;5.80;5.30;;;34.20;58.80;;;;;;4974963;28;20438;-62
2022/08/29 10:37:28;;;;;;;5.87;5.37;;;34.10;59.50;;;;;;4975063;28;20438;-63
2022/08/29 10:40:04;;;;;;;5.90;5.23;;;33.40;59.80;;;;;;4977448;28;20472;-63
2022/08/29 10:42:37;;;;;;;4.40;4.00;;;33.50;60.90;;;;;;4978290;28;20850;-63
2022/08/29 10:45:14;;;;;;;7.60;5.30;;;33.90;61.10;;;;;;4978555;28;20492;-63
2022/08/29 10:47:47;;;;;;;6.17;5.57;;;34.30;59.80;;;;;;4979133;28;20446;-63
2022/08/29 10:50:28;;;;;;;5.70;5.20;;;34.40;59.90;;;;;;4979133;28;20785;-62
2022/08/29 10:53:03;;;;;;;5.43;5.03;;;34.60;59.70;;;;;;4978565;28;20803;-62
2022/08/29 10:55:47;;;;;;;10.33;5.00;;;34.70;59.40;;;;;;4978401;28;20438;-63
2022/08/29 10:58:26;;;;;;;5.07;4.57;;;35.10;57.00;;;;;;4978385;28;20444;-63
2022/08/29 11:00:58;;;;;;;6.10;5.10;;;35.10;57.70;;;;;;4977760;28;20485;-67
2022/08/29 11:03:34;;;;;;;5.50;5.00;;;35.10;59.00;;;;;;4978209;28;20438;-63
2022/08/29 11:06:05;;;;;;;6.00;5.00;;;34.90;57.40;;;;;;4978629;28;20442;-63
2022/08/29 11:08:37;;;;;;;5.70;5.10;;;34.50;58.60;;;;;;4979206;28;20466;-63
2022/08/29 11:11:04;;;;;;;5.40;4.43;;;34.20;57.50;;;;;;4979591;28;20477;-62
2022/08/29 11:13:39;;;;;;;6.10;4.30;;;33.90;58.60;;;;;;4977968;28;20915;-62
2022/08/29 11:16:12;;;;;;;5.37;4.87;;;33.50;58.80;;;;;;4978437;28;20434;-63
2022/08/29 11:18:42;;;;;;;5.53;4.93;;;33.40;58.30;;;;;;4978038;28;20926;-63
2022/08/29 11:21:28;;;;;;;6.10;4.60;;;33.40;60.30;;;;;;4978441;28;20981;-62
2022/08/29 11:23:57;;;;;;;6.47;4.70;;;33.50;59.80;;;;;;4978552;28;20442;-63
2022/08/29 11:26:37;;;;;;;5.73;4.90;;;33.50;58.50;;;;;;4978341;28;20930;-64
2022/08/29 11:29:20;;;;;;;5.63;4.73;;;33.20;63.30;;;;;;4977762;28;20442;-63
2022/08/29 11:31:53;;;;;;;6.47;4.03;;;32.90;60.40;;;;;;4977560;28;20473;-63
2022/08/29 11:34:34;;;;;;;4.90;4.47;;;32.80;60.60;;;;;;4977521;28;20443;-63
2022/08/29 11:37:44;;;;;;;4.83;4.33;;;32.70;59.60;;;;;;4977385;28;20439;-63
2022/08/29 11:40:24;;;;;;;5.30;4.83;;;32.10;60.60;;;;;;4977505;28;20494;-63
2022/08/29 11:42:53;;;;;;;5.17;4.57;;;31.50;62.30;;;;;;4977339;28;20443;-63
2022/08/29 11:45:26;;;;;;;6.03;4.70;;;31.50;63.00;;;;;;4977323;28;20488;-63
2022/08/29 11:48:00;;;;;;;5.30;4.83;;;30.90;64.40;;;;;;4976999;28;20813;-63
2022/08/29 11:50:33;;;;;;;5.73;5.27;;;30.70;65.10;;;;;;4976982;28;20442;-63
2022/08/29 11:53:08;;;;;;;4.97;4.57;;;30.70;66.90;;;;;;4977256;28;20458;-67
2022/08/29 11:55:37;;;;;;;5.10;4.67;;;30.60;65.60;;;;;;4976880;28;20525;-64
2022/08/29 11:58:24;;;;;;;5.10;4.70;;;30.50;67.90;;;;;;4977187;28;20458;-64
2022/08/29 12:00:54;;;;;;;4.50;4.20;;;30.70;66.90;;;;;;4976852;28;20541;-64
2022/08/29 12:03:52;;;;;;;6.80;4.80;;;30.50;64.40;;;;;;4977092;28;20445;-64
2022/08/29 12:06:55;;;;;;;4.67;4.27;;;30.40;66.20;;;;;;4976983;28;20439;-64
2022/08/29 12:09:39;;;;;;;6.53;5.20;;;30.20;65.50;;;;;;4973632;28;20466;-63
2022/08/29 12:12:38;;;;;;;5.10;4.60;;;30.00;66.90;;;;;;4976689;28;20506;-65
2022/08/29 12:15:50;;;;;;;5.77;5.07;;;30.20;72.30;;;;;;4976686;28;20459;-63
2022/08/29 12:18:40;;;;;;;4.87;4.40;;;30.50;69.80;;;;;;4935887;29;20455;-63
2022/08/29 12:21:44;;;;;;;5.67;5.20;;;30.90;64.80;;;;;;4935795;29;20487;-63
2022/08/29 12:24:38;;;;;;;4.93;4.53;;;30.90;61.50;;;;;;4973547;28;20549;-63
2022/08/29 12:27:05;;;;;;;7.30;5.10;;;30.80;64.40;;;;;;4976449;28;20444;-63
2022/08/29 12:29:34;;;;;;;5.63;4.40;;;30.90;61.90;;;;;;4976463;28;20501;-63
2022/08/29 12:32:26;;;;;;;5.70;5.20;;;30.80;64.70;;;;;;4976207;28;20481;-63
2022/08/29 12:35:16;;;;;;;5.43;4.73;;;31.10;63.90;;;;;;4975947;28;20450;-63
2022/08/29 12:37:59;;;;;;;8.80;4.57;;;31.20;65.60;;;;;;4976321;28;20443;-63
2022/08/29 12:40:47;;;;;;;5.10;4.70;;;31.40;64.00;;;;;;4976194;28;20466;-63
2022/08/29 12:43:26;;;;;;;6.73;4.30;;;31.40;64.30;;;;;;4975983;28;20939;-63
2022/08/29 12:45:53;;;;;;;5.87;4.00;;;31.50;62.30;;;;;;4975909;28;20447;-63
2022/08/29 12:48:25;;;;;;;4.80;4.37;;;31.10;62.30;;;;;;4975893;28;20463;-63
2022/08/29 12:50:53;;;;;;;5.60;4.80;;;31.20;64.20;;;;;;4976184;28;20478;-63
2022/08/29 12:53:23;;;;;;;5.97;4.70;;;31.50;64.60;;;;;;4976118;28;20449;-63
2022/08/29 12:55:53;;;;;;;5.23;4.57;;;31.60;62.60;;;;;;4975568;28;20944;-62
2022/08/29 12:58:39;;;;;;;4.57;4.17;;;31.80;61.30;;;;;;4975953;28;20462;-62
2022/08/29 13:01:16;;;;;;;5.23;4.87;;;31.60;61.80;;;;;;4975412;28;20486;-62
2022/08/29 13:03:54;;;;;;;4.23;3.83;;;31.50;59.60;;;;;;4975946;28;20804;-62
2022/08/29 13:06:22;;;;;;;4.60;4.20;;;31.50;61.30;;;;;;4976031;28;20784;-62
2022/08/29 13:08:49;;;;;;;4.87;4.47;;;31.50;61.60;;;;;;4975995;28;20458;-62
2022/08/29 13:11:20;;;;;;;6.33;4.93;;;31.50;64.70;;;;;;4976129;28;20470;-63
2022/08/29 13:13:48;;;;;;;4.43;4.13;;;31.50;62.60;;;;;;4976027;28;20443;-62
2022/08/29 13:16:25;;;;;;;9.10;5.00;;;31.60;62.80;;;;;;4976043;28;20447;-63
2022/08/29 13:18:52;;;;;;;5.93;5.33;;;31.70;63.30;;;;;;4975617;28;20906;-63
2022/08/29 13:21:24;;;;;;;5.53;5.03;;;31.60;61.70;;;;;;4975542;28;20533;-63
2022/08/29 13:24:01;;;;;;;5.77;5.20;;;31.50;60.60;;;;;;4975794;28;20446;-63
2022/08/29 13:26:31;;;;;;;6.07;5.47;;;31.40;62.30;;;;;;4975694;28;20449;-63
2022/08/29 13:29:00;;;;;;;4.87;4.10;;;31.20;63.10;;;;;;4975898;28;20491;-63
2022/08/29 13:31:34;;;;;;;5.00;4.60;;;31.10;64.30;;;;;;4975270;28;20506;-64
2022/08/29 13:34:14;;;;;;;5.70;5.20;;;31.00;65.70;;;;;;4975321;28;20490;-64
2022/08/29 13:36:57;;;;;;;5.50;5.10;;;31.10;65.10;;;;;;4975398;28;20445;-62
2022/08/29 13:39:31;;;;;;;4.87;4.50;;;31.10;63.20;;;;;;4975433;28;20493;-62
2022/08/29 13:42:18;;;;;;;5.43;4.97;;;31.00;63.70;;;;;;4975044;28;20981;-62
2022/08/29 13:45:00;;;;;;;4.70;4.30;;;31.00;65.70;;;;;;4976220;28;20505;-62
2022/08/29 13:47:30;;;;;;;4.60;4.20;;;31.20;64.50;;;;;;4975102;28;20951;-62
2022/08/29 13:49:57;;;;;;;6.90;5.00;;;31.20;61.70;;;;;;4975351;28;20455;-62
2022/08/29 13:52:26;;;;;;;5.30;4.90;;;31.00;62.80;;;;;;4975148;28;20479;-62
2022/08/29 13:54:53;;;;;;;5.10;4.70;;;31.00;64.90;;;;;;4975156;28;20466;-62
2022/08/29 13:57:22;;;;;;;5.53;4.93;;;31.00;62.60;;;;;;4975157;28;20529;-62
2022/08/29 13:59:49;;;;;;;4.97;4.43;;;31.10;62.60;;;;;;4975179;28;20442;-62
2022/08/29 14:02:16;;;;;;;5.37;4.87;;;31.10;61.10;;;;;;4974557;28;20894;-62
2022/08/29 14:04:46;;;;;;;4.90;4.60;;;31.10;60.00;;;;;;4975087;28;20458;-62
2022/08/29 14:07:17;;;;;;;8.30;5.57;;;31.10;60.90;;;;;;4975630;28;20439;-62
2022/08/29 14:09:46;;;;;;;5.70;5.03;;;31.00;60.80;;;;;;4975074;28;20442;-62
2022/08/29 14:12:14;;;;;;;5.67;5.00;;;31.10;60.60;;;;;;4975754;28;20498;-63
2022/08/29 14:14:41;;;;;;;5.23;4.93;;;31.10;60.40;;;;;;4979528;28;20465;-63
2022/08/29 14:17:07;;;;;;;5.00;4.53;;;31.20;60.10;;;;;;4979608;28;20457;-62
2022/08/29 14:19:35;;;;;;;5.80;5.20;;;31.20;60.50;;;;;;4979480;28;20461;-62
2022/08/29 14:22:02;;;;;;;5.23;4.20;;;31.10;61.50;;;;;;4978742;28;20489;-62
2022/08/29 14:24:32;;;;;;;5.37;4.93;;;31.10;61.00;;;;;;4978937;28;20481;-62
2022/08/29 14:27:02;;;;;;;5.13;4.70;;;31.10;60.20;;;;;;4978715;28;20541;-63
2022/08/29 14:29:29;;;;;;;5.37;4.83;;;30.80;59.60;;;;;;4979757;28;20540;-62
2022/08/29 14:31:56;;;;;;;5.00;4.60;;;30.90;59.90;;;;;;4978659;28;20506;-63
2022/08/29 14:34:22;;;;;;;5.40;4.90;;;31.00;59.70;;;;;;4978871;28;20466;-64
2022/08/29 14:36:49;;;;;;;4.97;4.67;;;31.00;60.70;;;;;;4978531;28;20465;-64
2022/08/29 14:39:16;;;;;;;4.87;4.47;;;30.90;58.60;;;;;;4978528;28;20443;-64
2022/08/29 14:41:43;;;;;;;5.10;4.60;;;31.00;59.80;;;;;;4978187;28;21002;-64
2022/08/29 14:44:11;;;;;;;5.47;4.97;;;31.00;61.80;;;;;;4978518;28;20454;-63
2022/08/29 14:46:38;;;;;;;5.23;4.87;;;30.90;62.10;;;;;;4979330;28;20458;-63
2022/08/29 14:49:05;;;;;;;4.97;4.67;;;30.70;62.90;;;;;;4978367;28;20438;-63
2022/08/29 14:51:32;;;;;;;5.07;4.57;;;30.70;63.30;;;;;;4978444;28;20475;-64
2022/08/29 14:53:59;;;;;;;6.47;4.57;;;30.40;60.60;;;;;;4978465;28;20458;-63
2022/08/29 14:56:29;;;;;;;5.47;4.97;;;30.20;63.90;;;;;;4978219;28;20454;-64
2022/08/29 14:58:55;;;;;;;5.50;4.87;;;30.10;64.90;;;;;;4978731;28;20521;-64
2022/08/29 15:01:24;;;;;;;5.63;4.23;;;30.10;64.20;;;;;;4977903;28;20486;-64
2022/08/29 15:03:50;;;;;;;5.10;4.70;;;30.20;64.20;;;;;;4977977;28;20465;-64
2022/08/29 15:06:18;;;;;;;7.40;4.93;;;30.20;65.00;;;;;;4977878;28;20458;-64
2022/08/29 15:08:44;;;;;;;6.20;5.40;;;30.10;64.00;;;;;;4978081;28;20454;-64
2022/08/29 15:11:12;;;;;;;5.27;4.87;;;30.10;65.90;;;;;;4977891;28;20493;-64
2022/08/29 15:13:40;;;;;;;5.30;4.90;;;30.10;65.60;;;;;;4977882;28;20462;-65
2022/08/29 15:16:07;;;;;;;5.00;4.70;;;30.10;64.70;;;;;;4977836;28;20462;-65
2022/08/29 15:18:36;;;;;;;4.90;4.60;;;30.20;64.30;;;;;;4977854;28;20455;-64
2022/08/29 15:21:03;;;;;;;8.50;5.80;;;30.30;63.50;;;;;;4977586;28;20486;-64
2022/08/29 15:23:32;;;;;;;5.33;4.93;;;30.40;62.80;;;;;;4977589;28;20459;-65
2022/08/29 15:25:59;;;;;;;4.73;4.33;;;30.50;62.00;;;;;;4976914;28;20805;-64
2022/08/29 15:28:26;;;;;;;4.70;4.40;;;30.50;61.20;;;;;;4977506;28;20477;-64
2022/08/29 15:30:53;;;;;;;5.13;4.73;;;30.40;62.30;;;;;;4977250;28;20481;-64
2022/08/29 15:33:19;;;;;;;6.23;4.90;;;30.20;63.10;;;;;;4977374;28;20462;-64
2022/08/29 15:35:47;;;;;;;5.53;4.90;;;30.10;60.50;;;;;;4977058;28;20455;-64
2022/08/29 15:38:14;;;;;;;5.13;4.60;;;29.80;62.60;;;;;;4977373;28;20454;-64
2022/08/29 15:40:41;;;;;;;4.40;4.20;;;29.80;65.40;;;;;;4977189;28;20475;-64
2022/08/29 15:43:08;;;;;;;4.90;4.60;;;29.90;63.00;;;;;;4977311;28;20481;-65
2022/08/29 15:45:34;;;;;;;5.23;4.73;;;29.90;63.40;;;;;;4977106;28;20454;-65
2022/08/29 15:48:01;;;;;;;5.90;4.90;;;30.00;62.80;;;;;;4977098;28;20458;-65
2022/08/29 15:50:29;;;;;;;5.13;4.73;;;30.00;61.30;;;;;;4977059;28;20458;-65
2022/08/29 15:52:57;;;;;;;6.80;4.87;;;30.00;60.80;;;;;;4976940;28;21009;-64
2022/08/29 15:55:23;;;;;;;5.90;5.13;;;30.00;61.30;;;;;;4976889;28;20930;-64
2022/08/29 15:57:50;;;;;;;6.23;5.00;;;29.90;62.10;;;;;;4977288;28;20505;-64
2022/08/29 16:00:18;;;;;;;5.50;5.00;;;29.80;62.30;;;;;;4976708;28;20926;-64
2022/08/29 16:02:45;;;;;;;5.53;4.87;;;29.70;63.40;;;;;;4976819;28;20497;-64
2022/08/29 16:05:12;;;;;;;5.10;4.80;;;29.60;63.20;;;;;;4977664;28;20780;-64
2022/08/29 16:07:40;;;;;;;5.10;4.70;;;29.50;65.00;;;;;;4976899;28;20505;-64
2022/08/29 16:10:09;;;;;;;6.90;5.47;;;29.30;64.70;;;;;;4976943;28;20461;-63
2022/08/29 16:12:36;;;;;;;5.10;4.63;;;29.20;66.50;;;;;;4976774;28;20474;-64
2022/08/29 16:15:04;;;;;;;6.13;5.27;;;29.00;66.20;;;;;;4976986;28;20542;-64
2022/08/29 16:17:31;;;;;;;6.70;4.60;;;28.90;68.10;;;;;;4976910;28;20458;-64
2022/08/29 16:19:59;;;;;;;5.90;5.10;;;28.90;67.70;;;;;;4976628;28;20454;-64
2022/08/29 16:22:27;;;;;;;4.90;4.60;;;28.80;66.10;;;;;;4976356;28;20570;-64
2022/08/29 16:24:54;;;;;;;6.43;5.17;;;28.80;66.40;;;;;;4976635;28;20509;-64
2022/08/29 16:27:23;;;;;;;6.40;4.60;;;28.80;66.30;;;;;;4976193;28;20454;-64
2022/08/29 16:29:50;;;;;;;4.43;3.93;;;28.70;66.70;;;;;;4976592;28;20466;-63
2022/08/29 16:32:17;;;;;;;5.90;5.50;;;28.70;66.50;;;;;;4976125;28;20477;-63
2022/08/29 16:34:44;;;;;;;6.13;5.10;;;28.70;66.90;;;;;;4976453;28;20458;-63
2022/08/29 16:37:11;;;;;;;4.63;4.22;;;28.60;66.90;;;;;;4974493;28;20465;-66
2022/08/29 16:39:38;;;;;;;5.57;5.07;;;28.60;67.30;;;;;;4976325;28;20204;-65
2022/08/29 16:42:05;;;;;;;5.37;4.60;;;28.60;66.60;;;;;;4976098;28;20493;-66
2022/08/29 16:44:33;;;;;;;5.93;4.20;;;28.60;69.20;;;;;;4976230;28;20461;-66
2022/08/29 16:47:01;;;;;;;5.97;5.07;;;28.60;67.80;;;;;;4975893;28;20454;-66
2022/08/29 16:49:27;;;;;;;5.83;5.23;;;28.50;67.50;;;;;;4976123;28;20475;-64
2022/08/29 16:51:55;;;;;;;5.07;4.70;;;28.50;66.60;;;;;;4975971;28;20471;-65
2022/08/29 16:54:22;;;;;;;4.57;4.20;;;28.40;67.00;;;;;;4976069;28;20494;-65
2022/08/29 16:56:49;;;;;;;5.00;4.47;;;28.40;66.70;;;;;;4975768;28;20451;-64
2022/08/29 16:59:16;;;;;;;4.90;4.50;;;28.40;67.00;;;;;;4975811;28;20486;-65
2022/08/29 17:01:46;;;;;;;5.10;4.70;;;28.30;66.70;;;;;;4975398;28;20487;-65
2022/08/29 17:04:16;;;;;;;4.67;4.30;;;28.20;66.90;;;;;;4975956;28;20478;-65